createdAt,value
2022-12-11T00:00:43.860Z,13.40
2022-12-11T00:03:15.851Z,13.40
2022-12-11T00:05:44.996Z,13.40
2022-12-11T00:08:13.925Z,13.40
2022-12-11T00:10:48.427Z,13.40
2022-12-11T00:13:18.353Z,13.40
2022-12-11T00:15:46.750Z,13.40
2022-12-11T00:18:15.214Z,13.40
2022-12-11T00:20:44.031Z,13.40
2022-12-11T00:23:13.222Z,13.40
2022-12-11T00:25:45.326Z,13.40
2022-12-11T00:28:13.972Z,13.40
2022-12-11T00:30:43.976Z,13.50
2022-12-11T00:33:12.864Z,13.40
2022-12-11T00:35:41.670Z,13.50
2022-12-11T00:38:10.107Z,13.40
2022-12-11T00:40:38.694Z,13.40
2022-12-11T00:43:07.371Z,13.40
2022-12-11T00:45:37.235Z,13.40
2022-12-11T00:48:07.760Z,13.40
2022-12-11T00:50:36.228Z,13.40
2022-12-11T00:53:04.869Z,13.40
2022-12-11T00:55:33.274Z,13.40
2022-12-11T00:58:01.707Z,13.40
2022-12-11T01:00:30.102Z,13.40
2022-12-11T01:02:58.556Z,13.50
2022-12-11T01:05:28.629Z,13.50
2022-12-11T01:07:57.196Z,13.50
2022-12-11T01:10:25.033Z,13.50
2022-12-11T01:12:54.273Z,13.60
2022-12-11T01:15:24.012Z,13.60
2022-12-11T01:17:52.436Z,13.60
2022-12-11T01:20:22.026Z,13.70
2022-12-11T01:22:53.284Z,13.70
2022-12-11T01:25:22.163Z,13.70
2022-12-11T01:27:51.593Z,13.60
2022-12-11T01:30:20.519Z,13.50
2022-12-11T01:32:48.975Z,13.50
2022-12-11T01:35:17.940Z,13.50
2022-12-11T01:37:46.655Z,13.50
2022-12-11T01:40:18.076Z,13.50
2022-12-11T01:42:46.489Z,13.50
2022-12-11T01:45:29.693Z,13.50
2022-12-11T01:48:00.919Z,13.50
2022-12-11T01:50:30.234Z,13.40
2022-12-11T01:52:58.784Z,13.30
2022-12-11T01:55:28.691Z,13.40
2022-12-11T01:57:57.097Z,13.30
2022-12-11T02:00:25.491Z,13.30
2022-12-11T02:02:53.925Z,13.30
2022-12-11T02:05:22.355Z,13.30
2022-12-11T02:07:52.639Z,13.30
2022-12-11T02:10:21.226Z,13.30
2022-12-11T02:12:55.877Z,13.30
2022-12-11T02:15:26.995Z,13.30
2022-12-11T02:17:59.175Z,13.30
2022-12-11T02:20:29.573Z,13.30
2022-12-11T02:23:07.387Z,13.30
2022-12-11T02:25:38.409Z,13.30
2022-12-11T02:28:18.131Z,13.30
2022-12-11T02:30:47.984Z,13.30
2022-12-11T02:33:16.857Z,13.40
2022-12-11T02:35:46.970Z,13.40
2022-12-11T02:38:17.950Z,13.50
2022-12-11T02:40:48.014Z,13.50
2022-12-11T02:43:18.535Z,13.40
2022-12-11T02:45:47.961Z,13.50
2022-12-11T02:48:17.028Z,13.50
2022-12-11T02:50:47.328Z,13.60
2022-12-11T02:53:18.432Z,13.50
2022-12-11T02:55:46.918Z,13.50
2022-12-11T02:58:17.473Z,13.40
2022-12-11T03:00:47.685Z,13.40
2022-12-11T03:03:16.417Z,13.40
2022-12-11T03:05:47.638Z,13.40
2022-12-11T03:08:18.806Z,13.40
2022-12-11T03:10:47.275Z,13.40
2022-12-11T03:13:17.364Z,13.30
2022-12-11T03:15:52.919Z,13.30
2022-12-11T03:18:25.798Z,13.30
2022-12-11T03:20:58.281Z,13.30
2022-12-11T03:23:29.293Z,13.30
2022-12-11T03:26:00.051Z,13.20
2022-12-11T03:28:30.369Z,13.20
2022-12-11T03:31:03.975Z,13.20
2022-12-11T03:33:34.105Z,13.20
2022-12-11T03:36:03.729Z,13.10
2022-12-11T03:38:33.135Z,13.10
2022-12-11T03:41:03.164Z,13.10
2022-12-11T03:43:32.157Z,13.10
2022-12-11T03:46:02.150Z,13.20
2022-12-11T03:48:33.872Z,13.20
2022-12-11T03:51:03.370Z,13.20
2022-12-11T03:53:33.661Z,13.10
2022-12-11T03:56:04.034Z,13.10
2022-12-11T03:58:32.555Z,13.10
2022-12-11T04:01:02.430Z,13.10
2022-12-11T04:03:30.778Z,13.10
2022-12-11T04:05:59.191Z,13.10
2022-12-11T04:08:27.635Z,13.10
2022-12-11T04:11:09.949Z,13.10
2022-12-11T04:13:38.511Z,13.10
2022-12-11T04:16:07.790Z,13.20
2022-12-11T04:18:53.872Z,13.10
2022-12-11T04:21:40.050Z,13.20
2022-12-11T04:24:17.704Z,13.30
2022-12-11T04:26:46.919Z,13.20
2022-12-11T04:29:16.029Z,13.20
2022-12-11T04:31:45.910Z,13.20
2022-12-11T04:34:14.377Z,13.30
2022-12-11T04:36:42.804Z,13.30
2022-12-11T04:39:11.217Z,13.20
2022-12-11T04:41:41.566Z,13.20
2022-12-11T04:44:10.148Z,13.20
2022-12-11T04:46:38.526Z,13.20
2022-12-11T04:49:08.478Z,13.20
2022-12-11T04:51:36.843Z,13.20
2022-12-11T04:54:05.219Z,13.20
2022-12-11T04:56:33.613Z,13.20
2022-12-11T04:59:02.305Z,13.20
2022-12-11T05:01:30.722Z,13.20
2022-12-11T05:04:00.262Z,13.20
2022-12-11T05:06:30.124Z,13.20
2022-12-11T05:08:58.506Z,13.20
2022-12-11T05:11:26.892Z,13.20
2022-12-11T05:13:55.370Z,13.10
2022-12-11T05:16:23.822Z,13.10
2022-12-11T05:18:52.232Z,13.10
2022-12-11T05:21:20.720Z,13.10
2022-12-11T05:23:50.528Z,13.10
2022-12-11T05:26:20.823Z,13.00
2022-12-11T05:28:52.012Z,13.00
2022-12-11T05:31:21.266Z,13.00
2022-12-11T05:33:50.283Z,13.10
2022-12-11T05:36:19.662Z,13.10
2022-12-11T05:38:48.069Z,13.10
2022-12-11T05:41:19.553Z,13.10
2022-12-11T05:43:48.529Z,13.10
2022-12-11T05:46:18.004Z,13.20
2022-12-11T05:48:47.439Z,13.20
2022-12-11T05:51:16.612Z,13.20
2022-12-11T05:53:45.792Z,13.20
2022-12-11T05:56:14.823Z,13.20
2022-12-11T05:58:45.063Z,13.10
2022-12-11T06:01:14.643Z,13.00
2022-12-11T06:03:43.108Z,13.00
2022-12-11T06:06:11.785Z,13.00
2022-12-11T06:08:40.215Z,13.00
2022-12-11T06:11:08.740Z,12.90
2022-12-11T06:13:37.129Z,12.90
2022-12-11T06:16:07.879Z,12.80
2022-12-11T06:18:37.235Z,12.80
2022-12-11T06:21:12.263Z,12.80
2022-12-11T06:23:40.638Z,12.90
2022-12-11T06:26:09.258Z,12.80
2022-12-11T06:28:37.657Z,12.80
2022-12-11T06:31:08.121Z,12.70
2022-12-11T06:33:36.953Z,12.70
2022-12-11T06:36:05.786Z,12.70
2022-12-11T06:38:34.287Z,12.70
2022-12-11T06:41:04.812Z,12.70
2022-12-11T06:43:33.229Z,12.70
2022-12-11T06:46:04.532Z,12.70
2022-12-11T06:48:34.564Z,12.70
2022-12-11T06:51:06.530Z,12.60
2022-12-11T06:53:35.009Z,12.60
2022-12-11T06:56:04.354Z,12.60
2022-12-11T06:58:32.745Z,12.60
2022-12-11T07:01:01.234Z,12.60
2022-12-11T07:06:59.040Z,12.60
2022-12-11T07:09:27.472Z,12.60
2022-12-11T07:11:55.842Z,12.60
2022-12-11T07:14:24.220Z,12.60
2022-12-11T07:16:52.824Z,12.70
2022-12-11T07:19:21.227Z,12.70
2022-12-11T07:21:49.681Z,12.80
2022-12-11T07:24:19.524Z,12.80
2022-12-11T07:26:47.952Z,12.80
2022-12-11T07:29:16.371Z,12.80
2022-12-11T07:31:44.809Z,12.80
2022-12-11T07:34:14.122Z,12.90
2022-12-11T07:36:43.651Z,12.80
2022-12-11T07:39:12.291Z,12.80
2022-12-11T07:41:42.116Z,12.80
2022-12-11T07:44:10.571Z,12.80
2022-12-11T07:46:39.139Z,12.80
2022-12-11T07:49:07.795Z,12.90
2022-12-11T07:51:37.342Z,12.90
2022-12-11T07:54:06.819Z,12.90
2022-12-11T07:56:35.613Z,12.90
2022-12-11T07:59:05.988Z,13.00
2022-12-11T08:01:36.639Z,12.90
2022-12-11T08:04:06.143Z,13.00
2022-12-11T08:06:35.629Z,13.10
2022-12-11T08:09:05.539Z,13.20
2022-12-11T08:11:34.011Z,13.30
2022-12-11T08:14:02.533Z,13.40
2022-12-11T08:16:33.059Z,13.50
2022-12-11T08:19:01.458Z,13.70
2022-12-11T08:21:29.960Z,13.80
2022-12-11T08:23:58.389Z,13.90
2022-12-11T08:26:27.927Z,13.90
2022-12-11T08:28:56.644Z,13.80
2022-12-11T08:31:25.397Z,13.80
2022-12-11T08:33:55.961Z,13.80
2022-12-11T08:36:24.576Z,13.80
2022-12-11T08:38:53.155Z,13.90
2022-12-11T08:41:22.813Z,13.80
2022-12-11T08:43:54.876Z,13.70
2022-12-11T08:46:24.529Z,13.70
2022-12-11T08:48:53.532Z,13.90
2022-12-11T08:51:23.861Z,14.00
2022-12-11T08:53:52.394Z,14.20
2022-12-11T08:56:21.649Z,14.20
2022-12-11T08:58:50.030Z,14.20
2022-12-11T09:01:19.381Z,14.20
2022-12-11T09:03:48.300Z,14.00
2022-12-11T09:06:21.505Z,14.10
2022-12-11T09:08:53.314Z,14.00
2022-12-11T09:11:23.486Z,14.00
2022-12-11T09:13:51.955Z,14.00
2022-12-11T09:16:21.891Z,13.90
2022-12-11T09:18:51.609Z,13.80
2022-12-11T09:21:21.112Z,13.60
2022-12-11T09:23:49.921Z,13.50
2022-12-11T09:26:20.198Z,13.50
2022-12-11T09:28:48.543Z,13.70
2022-12-11T09:31:18.033Z,13.70
2022-12-11T09:33:46.881Z,13.70
2022-12-11T09:36:15.285Z,13.80
2022-12-11T09:38:44.897Z,13.90
2022-12-11T09:41:29.215Z,13.90
2022-12-11T09:44:01.235Z,13.90
2022-12-11T09:46:33.913Z,13.90
2022-12-11T09:49:03.627Z,13.80
2022-12-11T09:51:36.737Z,13.80
2022-12-11T09:54:05.697Z,13.80
2022-12-11T09:56:37.735Z,13.90
2022-12-11T09:59:10.969Z,14.00
2022-12-11T10:01:42.377Z,14.00
2022-12-11T10:04:27.253Z,14.00
2022-12-11T10:07:02.701Z,14.10
2022-12-11T10:09:35.011Z,14.00
2022-12-11T10:12:09.679Z,14.00
2022-12-11T10:14:44.749Z,14.00
2022-12-11T10:17:17.035Z,14.00
2022-12-11T10:19:45.585Z,14.00
2022-12-11T10:22:18.570Z,14.10
2022-12-11T10:27:42.073Z,14.20
2022-12-11T10:30:16.032Z,14.30
2022-12-11T10:32:49.261Z,14.30
2022-12-11T10:35:19.853Z,14.30
2022-12-11T10:37:48.261Z,14.30
2022-12-11T10:40:17.800Z,14.30
2022-12-11T10:42:54.522Z,14.40
2022-12-11T10:45:22.980Z,14.40
2022-12-11T10:47:51.319Z,14.30
2022-12-11T10:50:23.473Z,14.30
2022-12-11T10:52:52.366Z,14.40
2022-12-11T10:55:23.643Z,14.60
2022-12-11T10:58:00.725Z,14.80
2022-12-11T11:00:34.148Z,14.70
2022-12-11T11:03:02.912Z,14.60
2022-12-11T11:05:32.468Z,14.50
2022-12-11T11:08:04.525Z,14.50
2022-12-11T11:10:32.952Z,14.60
2022-12-11T11:13:03.654Z,14.80
2022-12-11T11:15:32.152Z,14.90
2022-12-11T11:18:02.398Z,14.80
2022-12-11T11:20:32.277Z,14.50
2022-12-11T11:23:01.838Z,14.50
2022-12-11T11:25:31.259Z,14.40
2022-12-11T11:28:01.281Z,14.30
2022-12-11T11:30:32.996Z,14.30
2022-12-11T11:33:04.614Z,14.30
2022-12-11T11:35:33.170Z,14.30
2022-12-11T11:38:04.456Z,14.20
2022-12-11T11:40:35.307Z,14.10
2022-12-11T11:43:08.019Z,14.10
2022-12-11T11:45:42.396Z,14.20
2022-12-11T11:48:15.023Z,14.10
2022-12-11T11:50:46.212Z,14.10
2022-12-11T11:53:17.539Z,14.00
2022-12-11T11:55:50.456Z,14.00
2022-12-11T11:58:22.947Z,14.10
2022-12-11T12:00:54.724Z,14.00
2022-12-11T12:03:24.327Z,13.90
2022-12-11T12:05:55.486Z,13.90
2022-12-11T12:08:31.439Z,14.00
2022-12-11T12:11:04.868Z,14.20
2022-12-11T12:13:52.510Z,14.30
2022-12-11T12:16:58.123Z,14.20
2022-12-11T12:19:21.834Z,14.20
2022-12-11T12:21:52.065Z,14.20
2022-12-11T12:24:27.154Z,14.00
2022-12-11T12:26:58.016Z,13.90
2022-12-11T12:29:30.030Z,13.80
2022-12-11T12:32:06.830Z,13.80
2022-12-11T12:34:42.628Z,13.90
2022-12-11T12:37:13.461Z,14.10
2022-12-11T12:39:46.167Z,14.20
2022-12-11T12:42:20.886Z,14.00
2022-12-11T12:44:54.117Z,14.00
2022-12-11T12:47:24.631Z,14.10
2022-12-11T12:49:54.350Z,14.00
2022-12-11T12:52:27.024Z,13.90
2022-12-11T12:55:16.194Z,13.90
2022-12-11T12:57:46.626Z,13.90
2022-12-11T13:00:26.488Z,14.00
2022-12-11T13:02:57.236Z,14.10
2022-12-11T13:05:27.101Z,14.40
2022-12-11T13:07:56.560Z,14.50
2022-12-11T13:10:30.986Z,14.50
2022-12-11T13:12:59.857Z,14.50
2022-12-11T13:15:32.653Z,14.50
2022-12-11T13:18:03.776Z,14.60
2022-12-11T13:20:33.321Z,14.60
2022-12-11T13:23:17.392Z,14.60
2022-12-11T13:25:51.261Z,14.50
2022-12-11T13:28:23.993Z,14.60
2022-12-11T13:31:03.091Z,14.60
2022-12-11T13:33:33.552Z,14.60
2022-12-11T13:36:24.338Z,14.60
2022-12-11T13:38:54.788Z,14.60
2022-12-11T13:41:23.678Z,14.60
2022-12-11T13:43:52.592Z,14.40
2022-12-11T13:46:22.389Z,14.50
2022-12-11T13:48:55.554Z,14.60
2022-12-11T13:51:25.429Z,14.60
2022-12-11T13:54:03.856Z,14.70
2022-12-11T13:56:32.332Z,14.80
2022-12-11T13:59:00.688Z,14.80
2022-12-11T14:01:30.444Z,14.80
2022-12-11T14:04:03.892Z,14.80
2022-12-11T14:06:32.739Z,14.80
2022-12-11T14:09:02.650Z,14.70
2022-12-11T14:11:35.301Z,14.70
2022-12-11T14:14:05.554Z,14.70
2022-12-11T14:16:34.381Z,14.60
2022-12-11T14:19:06.525Z,14.60
2022-12-11T14:21:35.184Z,14.60
2022-12-11T14:24:06.631Z,14.60
2022-12-11T14:26:37.916Z,14.60
2022-12-11T14:29:06.327Z,14.60
2022-12-11T14:31:36.072Z,14.60
2022-12-11T14:34:07.627Z,14.60
2022-12-11T14:36:36.463Z,14.50
2022-12-11T14:39:06.026Z,14.50
2022-12-11T14:41:41.141Z,14.40
2022-12-11T14:44:13.217Z,14.50
2022-12-11T14:46:43.422Z,14.40
2022-12-11T14:49:18.589Z,14.40
2022-12-11T14:51:47.683Z,14.40
2022-12-11T14:54:20.557Z,14.30
2022-12-11T14:56:49.152Z,14.40
2022-12-11T14:59:25.493Z,14.30
2022-12-11T15:02:00.586Z,14.30
2022-12-11T15:04:31.745Z,14.30
2022-12-11T15:07:00.446Z,14.30
2022-12-11T15:09:30.480Z,14.20
2022-12-11T15:12:00.541Z,14.20
2022-12-11T15:14:29.670Z,14.20
2022-12-11T15:16:58.783Z,14.20
2022-12-11T15:19:30.128Z,14.20
2022-12-11T15:22:04.217Z,14.20
2022-12-11T15:24:36.109Z,14.10
2022-12-11T15:27:06.978Z,14.10
2022-12-11T15:29:36.295Z,14.00
2022-12-11T15:32:05.972Z,14.00
2022-12-11T15:34:35.236Z,14.00
2022-12-11T15:37:04.941Z,13.90
2022-12-11T15:39:33.314Z,13.90
2022-12-11T15:42:02.142Z,13.80
2022-12-11T15:44:30.520Z,13.80
2022-12-11T15:46:58.922Z,13.80
2022-12-11T15:49:27.338Z,13.80
2022-12-11T15:51:55.724Z,13.70
2022-12-11T15:54:25.506Z,13.60
2022-12-11T15:56:53.854Z,13.60
2022-12-11T15:59:22.245Z,13.60
2022-12-11T16:01:50.743Z,13.60
2022-12-11T16:04:19.124Z,13.60
2022-12-11T16:06:47.472Z,13.60
2022-12-11T16:09:15.864Z,13.50
2022-12-11T16:11:45.678Z,13.50
2022-12-11T16:14:14.045Z,13.40
2022-12-11T16:16:42.588Z,13.30
2022-12-11T16:19:10.953Z,13.30
2022-12-11T16:21:39.387Z,13.30
2022-12-11T16:24:08.109Z,13.40
2022-12-11T16:26:38.790Z,13.30
2022-12-11T16:29:08.654Z,13.30
2022-12-11T16:31:37.307Z,13.30
2022-12-11T16:34:05.720Z,13.30
2022-12-11T16:36:34.082Z,13.30
2022-12-11T16:39:02.470Z,13.20
2022-12-11T16:41:31.008Z,13.10
2022-12-11T16:44:02.145Z,13.10
2022-12-11T16:46:31.959Z,13.10
2022-12-11T16:49:00.377Z,13.10
2022-12-11T16:51:28.956Z,13.10
2022-12-11T16:53:57.439Z,13.10
2022-12-11T16:56:26.724Z,13.10
2022-12-11T16:58:55.152Z,13.10
2022-12-11T17:01:23.540Z,13.10
2022-12-11T17:03:53.452Z,13.10
2022-12-11T17:06:22.204Z,13.10
2022-12-11T17:08:50.593Z,13.00
2022-12-11T17:11:20.242Z,13.00
2022-12-11T17:13:48.828Z,12.90
2022-12-11T17:16:18.016Z,12.90
2022-12-11T17:18:46.447Z,12.90
2022-12-11T17:21:17.593Z,12.90
2022-12-11T17:23:46.330Z,12.90
2022-12-11T17:26:14.948Z,12.90
2022-12-11T17:28:43.365Z,13.00
2022-12-11T17:31:13.987Z,13.00
2022-12-11T17:33:42.461Z,13.00
2022-12-11T17:36:13.438Z,12.90
2022-12-11T17:38:43.375Z,12.90
2022-12-11T17:41:18.535Z,12.90
2022-12-11T17:43:49.336Z,12.90
2022-12-11T17:46:18.204Z,12.80
2022-12-11T17:48:46.677Z,12.70
2022-12-11T17:51:21.078Z,12.60
2022-12-11T17:53:51.052Z,12.50
2022-12-11T17:56:19.585Z,12.40
2022-12-11T17:58:47.938Z,12.30
2022-12-11T18:01:16.432Z,12.40
2022-12-11T18:03:44.932Z,12.30
2022-12-11T18:06:14.941Z,12.30
2022-12-11T18:08:44.529Z,12.30
2022-12-11T18:11:15.554Z,12.30
2022-12-11T18:13:44.681Z,12.30
2022-12-11T18:16:16.866Z,12.20
2022-12-11T18:18:46.362Z,12.20
2022-12-11T18:21:15.157Z,12.20
2022-12-11T18:23:43.601Z,12.10
2022-12-11T18:26:14.528Z,12.10
2022-12-11T18:28:44.398Z,12.00
2022-12-11T18:31:13.726Z,12.00
2022-12-11T18:33:43.504Z,11.90
2022-12-11T18:36:12.351Z,11.90
2022-12-11T18:38:41.119Z,11.90
2022-12-11T18:41:10.739Z,11.90
2022-12-11T18:43:39.242Z,11.90
2022-12-11T18:46:09.700Z,11.90
2022-12-11T18:48:38.492Z,11.90
2022-12-11T18:51:08.529Z,11.90
2022-12-11T18:53:37.308Z,12.00
2022-12-11T18:56:06.749Z,11.90
2022-12-11T18:58:35.160Z,11.90
2022-12-11T19:01:07.111Z,12.00
2022-12-11T19:03:37.416Z,12.00
2022-12-11T19:06:09.760Z,12.00
2022-12-11T19:08:38.259Z,12.00
2022-12-11T19:11:06.901Z,12.00
2022-12-11T19:13:35.697Z,12.00
2022-12-11T19:16:07.169Z,12.00
2022-12-11T19:18:36.969Z,12.00
2022-12-11T19:21:11.143Z,12.00
2022-12-11T19:23:40.749Z,11.90
2022-12-11T19:26:11.572Z,11.90
2022-12-11T19:28:40.023Z,11.90
2022-12-11T19:31:09.882Z,11.90
2022-12-11T19:33:39.857Z,11.90
2022-12-11T19:36:10.397Z,11.80
2022-12-11T19:38:39.095Z,11.80
2022-12-11T19:41:08.387Z,11.70
2022-12-11T19:43:37.175Z,11.80
2022-12-11T19:46:06.861Z,11.80
2022-12-11T19:48:37.564Z,11.90
2022-12-11T19:51:07.737Z,11.80
2022-12-11T19:53:36.529Z,11.80
2022-12-11T19:56:05.657Z,11.80
2022-12-11T19:58:34.399Z,11.70
2022-12-11T20:01:03.241Z,11.80
2022-12-11T20:03:31.930Z,11.70
2022-12-11T20:06:01.112Z,11.80
2022-12-11T20:08:46.445Z,11.70
2022-12-11T20:11:18.451Z,11.80
2022-12-11T20:13:47.471Z,11.80
2022-12-11T20:16:16.433Z,11.80
2022-12-11T20:18:45.050Z,11.80
2022-12-11T20:21:14.474Z,11.90
2022-12-11T20:23:44.779Z,11.90
2022-12-11T20:26:14.490Z,11.90
2022-12-11T20:28:42.866Z,11.90
2022-12-11T20:31:18.055Z,11.70
2022-12-11T20:33:48.768Z,11.50
2022-12-11T20:36:17.800Z,11.40
2022-12-11T20:38:48.100Z,11.50
2022-12-11T20:41:17.328Z,11.50
2022-12-11T20:43:45.740Z,11.50
2022-12-11T20:46:15.687Z,11.50
2022-12-11T20:48:44.962Z,11.50
2022-12-11T20:51:14.283Z,11.60
2022-12-11T20:53:43.152Z,11.50
2022-12-11T20:56:13.768Z,11.50
2022-12-11T20:58:42.171Z,11.40
2022-12-11T21:01:14.978Z,11.50
2022-12-11T21:03:43.609Z,11.50
2022-12-11T21:06:18.270Z,11.60
2022-12-11T21:08:46.690Z,11.70
2022-12-11T21:11:16.428Z,11.70
2022-12-11T21:13:44.820Z,11.70
2022-12-11T21:16:13.258Z,11.60
2022-12-11T21:18:43.543Z,11.60
2022-12-11T21:21:12.245Z,11.60
2022-12-11T21:23:40.616Z,11.60
2022-12-11T21:26:09.056Z,11.70
2022-12-11T21:28:38.827Z,11.70
2022-12-11T21:31:08.086Z,11.60
2022-12-11T21:33:36.924Z,11.60
2022-12-11T21:36:06.551Z,11.50
2022-12-11T21:38:35.076Z,11.50
2022-12-11T21:41:08.284Z,11.60
2022-12-11T21:43:54.573Z,11.60
2022-12-11T21:46:27.293Z,11.60
2022-12-11T21:48:55.821Z,11.50
2022-12-11T21:51:25.166Z,11.50
2022-12-11T21:53:53.630Z,11.50
2022-12-11T21:56:22.751Z,11.50
2022-12-11T21:58:53.027Z,11.40
2022-12-11T22:01:22.669Z,11.40
2022-12-11T22:03:51.633Z,11.40
2022-12-11T22:06:20.044Z,11.40
2022-12-11T22:08:52.341Z,11.30
2022-12-11T22:11:21.823Z,11.40
2022-12-11T22:13:50.492Z,11.40
2022-12-11T22:16:20.379Z,11.40
2022-12-11T22:18:48.797Z,11.50
2022-12-11T22:21:17.385Z,11.50
2022-12-11T22:23:45.920Z,11.60
2022-12-11T22:26:16.936Z,11.60
2022-12-11T22:28:45.422Z,11.60
2022-12-11T22:31:14.371Z,11.60
2022-12-11T22:33:44.288Z,11.60
2022-12-11T22:36:13.060Z,11.70
2022-12-11T22:38:41.416Z,11.70
2022-12-11T22:41:18.855Z,11.80
2022-12-11T22:43:50.370Z,11.80
2022-12-11T22:46:19.851Z,11.80
2022-12-11T22:48:49.629Z,11.90
2022-12-11T22:51:18.127Z,12.00
2022-12-11T22:53:46.540Z,11.90
2022-12-11T22:56:15.040Z,11.90
2022-12-11T22:58:43.589Z,12.00
2022-12-11T23:01:13.150Z,12.00
2022-12-11T23:03:41.863Z,12.00
2022-12-11T23:06:12.885Z,11.90
2022-12-11T23:08:41.448Z,11.90
2022-12-11T23:11:13.081Z,12.00
2022-12-11T23:13:41.794Z,11.90
2022-12-11T23:16:10.444Z,11.90
2022-12-11T23:18:39.491Z,11.90
2022-12-11T23:21:08.380Z,11.90
2022-12-11T23:23:38.283Z,12.00
2022-12-11T23:26:07.003Z,12.00
2022-12-11T23:28:35.428Z,12.10
2022-12-11T23:31:04.060Z,12.10
2022-12-11T23:33:32.488Z,12.00
2022-12-11T23:36:01.089Z,12.00
2022-12-11T23:38:29.707Z,12.00
2022-12-11T23:41:00.553Z,12.00
2022-12-11T23:43:28.939Z,12.00
2022-12-11T23:45:57.714Z,12.00
2022-12-11T23:48:26.225Z,11.90
2022-12-11T23:50:58.635Z,11.90
2022-12-11T23:53:27.101Z,11.90
2022-12-11T23:55:55.631Z,12.00
2022-12-11T23:58:25.429Z,12.00
